createdAt,value
2018-01-29T00:00:03.982Z,79.92
2018-01-29T00:02:32.315Z,79.82
2018-01-29T00:05:01.736Z,79.62
2018-01-29T00:07:30.032Z,79.25
2018-01-29T00:09:58.435Z,79.07
2018-01-29T00:12:26.735Z,78.84
2018-01-29T00:14:55.227Z,78.48
2018-01-29T00:17:23.584Z,78.30
2018-01-29T00:19:51.918Z,78.27
2018-01-29T00:22:21.028Z,78.07
2018-01-29T00:24:49.336Z,77.89
2018-01-29T00:27:17.650Z,77.64
2018-01-29T00:29:45.931Z,77.63
2018-01-29T00:32:14.399Z,77.42
2018-01-29T00:34:42.710Z,77.58
2018-01-29T00:37:11.032Z,77.65
2018-01-29T00:39:39.580Z,77.54
2018-01-29T00:42:08.671Z,77.49
2018-01-29T00:44:36.988Z,77.49
2018-01-29T00:47:05.296Z,77.38
2018-01-29T00:49:33.593Z,77.23
2018-01-29T00:52:01.888Z,77.14
2018-01-29T00:54:30.222Z,76.99
2018-01-29T00:56:58.523Z,77.02
2018-01-29T00:59:27.132Z,77.11
2018-01-29T01:01:55.440Z,77.05
2018-01-29T01:04:24.486Z,76.85
2018-01-29T01:06:52.824Z,76.71
2018-01-29T01:09:21.920Z,76.68
2018-01-29T01:11:51.027Z,76.67
2018-01-29T01:14:20.106Z,76.64
2018-01-29T01:16:48.444Z,76.72
2018-01-29T01:19:16.900Z,76.78
2018-01-29T01:21:45.988Z,76.81
2018-01-29T01:24:15.064Z,76.95
2018-01-29T01:26:43.378Z,76.93
2018-01-29T01:29:12.432Z,76.92
2018-01-29T01:31:40.772Z,77.00
2018-01-29T01:34:09.203Z,77.04
2018-01-29T01:36:37.804Z,76.95
2018-01-29T01:39:06.116Z,76.96
2018-01-29T01:41:35.200Z,76.86
2018-01-29T01:44:03.502Z,76.91
2018-01-29T01:46:31.802Z,76.78
2018-01-29T01:49:00.213Z,76.74
2018-01-29T01:51:28.546Z,76.89
2018-01-29T01:53:57.615Z,76.90
2018-01-29T01:56:25.924Z,76.77
2018-01-29T01:58:54.975Z,76.80
2018-01-29T02:01:23.282Z,76.73
2018-01-29T02:03:51.738Z,76.58
2018-01-29T02:06:20.030Z,76.79
2018-01-29T02:08:48.370Z,76.81
2018-01-29T02:11:16.730Z,76.79
2018-01-29T02:13:45.820Z,76.93
2018-01-29T02:16:14.914Z,76.87
2018-01-29T02:18:43.853Z,76.77
2018-01-29T02:21:12.178Z,76.83
2018-01-29T02:23:40.819Z,76.84
2018-01-29T02:26:09.134Z,76.80
2018-01-29T02:28:37.462Z,76.83
2018-01-29T02:31:06.574Z,76.99
2018-01-29T02:33:34.958Z,76.95
2018-01-29T02:36:03.306Z,76.98
2018-01-29T02:38:31.622Z,76.90
2018-01-29T02:40:59.934Z,76.84
2018-01-29T02:43:28.229Z,76.85
2018-01-29T02:45:56.566Z,76.87
2018-01-29T02:48:24.954Z,76.74
2018-01-29T02:50:53.238Z,76.59
2018-01-29T02:53:21.548Z,76.61
2018-01-29T02:55:50.536Z,76.69
2018-01-29T02:58:18.844Z,76.59
2018-01-29T03:00:47.154Z,76.64
2018-01-29T03:03:16.960Z,76.66
2018-01-29T03:05:46.098Z,76.61
2018-01-29T03:08:14.407Z,76.59
2018-01-29T03:10:42.740Z,76.62
2018-01-29T03:13:11.824Z,76.64
2018-01-29T03:15:40.139Z,76.62
2018-01-29T03:18:08.430Z,76.75
2018-01-29T03:20:36.738Z,76.62
2018-01-29T03:23:05.038Z,76.54
2018-01-29T03:25:33.377Z,76.66
2018-01-29T03:28:01.694Z,76.73
2018-01-29T03:30:30.182Z,76.91
2018-01-29T03:32:58.522Z,76.86
2018-01-29T03:35:26.856Z,76.87
2018-01-29T03:37:55.378Z,76.74
2018-01-29T03:40:23.682Z,76.85
2018-01-29T03:42:52.002Z,76.86
2018-01-29T03:45:20.309Z,76.89
2018-01-29T03:47:49.451Z,76.66
2018-01-29T03:50:17.778Z,76.67
2018-01-29T03:52:46.913Z,76.66
2018-01-29T03:55:15.958Z,76.50
2018-01-29T03:57:44.326Z,76.29
2018-01-29T04:00:12.650Z,76.24
2018-01-29T04:02:41.715Z,76.21
2018-01-29T04:05:10.020Z,76.31
2018-01-29T04:07:38.334Z,76.45
2018-01-29T04:10:06.680Z,76.46
2018-01-29T04:12:34.980Z,76.45
2018-01-29T04:15:04.140Z,76.53
2018-01-29T04:17:32.455Z,76.40
2018-01-29T04:20:01.543Z,76.12
2018-01-29T04:22:30.646Z,76.14
2018-01-29T04:24:58.975Z,76.21
2018-01-29T04:27:27.274Z,76.15
2018-01-29T04:29:55.586Z,76.11
2018-01-29T04:32:23.900Z,76.13
2018-01-29T04:34:52.206Z,75.99
2018-01-29T04:37:20.546Z,76.03
2018-01-29T04:39:48.909Z,76.03
2018-01-29T04:42:17.180Z,75.99
2018-01-29T04:44:45.484Z,75.93
2018-01-29T04:47:15.250Z,75.99
2018-01-29T04:49:43.567Z,75.87
2018-01-29T04:52:11.863Z,75.83
2018-01-29T04:54:40.209Z,75.89
2018-01-29T04:57:08.514Z,75.88
2018-01-29T04:59:36.832Z,76.16
2018-01-29T05:02:05.170Z,76.19
2018-01-29T05:04:34.983Z,76.11
2018-01-29T05:07:03.273Z,76.22
2018-01-29T05:09:31.588Z,76.32
2018-01-29T05:11:59.896Z,76.39
2018-01-29T05:14:28.198Z,76.29
2018-01-29T05:16:56.509Z,76.27
2018-01-29T05:19:24.837Z,76.35
2018-01-29T05:21:53.227Z,76.32
2018-01-29T05:24:21.582Z,76.44
2018-01-29T05:26:49.924Z,76.40
2018-01-29T05:29:18.239Z,76.44
2018-01-29T05:31:47.339Z,76.56
2018-01-29T05:34:16.445Z,76.44
2018-01-29T05:39:47.941Z,76.42
2018-01-29T05:42:16.419Z,76.43
2018-01-29T05:44:44.726Z,76.40
2018-01-29T05:47:13.369Z,76.18
2018-01-29T05:49:41.673Z,76.15
2018-01-29T05:52:09.995Z,75.95
2018-01-29T05:54:38.301Z,76.07
2018-01-29T05:57:06.617Z,76.05
2018-01-29T05:59:34.954Z,76.16
2018-01-29T06:02:03.285Z,76.18
2018-01-29T06:04:31.604Z,76.24
2018-01-29T06:06:59.909Z,76.22
2018-01-29T06:09:29.229Z,76.30
2018-01-29T06:11:57.553Z,76.27
2018-01-29T06:14:25.855Z,76.19
2018-01-29T06:16:54.159Z,76.20
2018-01-29T06:19:23.255Z,76.12
2018-01-29T06:21:52.355Z,76.25
2018-01-29T06:24:21.451Z,76.08
2018-01-29T06:26:50.570Z,76.08
2018-01-29T06:29:18.877Z,76.03
2018-01-29T06:31:47.635Z,76.10
2018-01-29T06:34:16.950Z,76.08
2018-01-29T06:36:45.259Z,75.91
2018-01-29T06:39:13.599Z,75.72
2018-01-29T06:41:42.719Z,75.68
2018-01-29T06:44:12.101Z,75.74
2018-01-29T06:46:41.171Z,75.72
2018-01-29T06:49:10.213Z,75.56
2018-01-29T06:51:38.529Z,75.75
2018-01-29T06:54:06.849Z,75.68
2018-01-29T06:56:36.089Z,75.62
2018-01-29T06:59:04.425Z,75.45
2018-01-29T07:01:32.746Z,75.59
2018-01-29T07:04:01.183Z,75.53
2018-01-29T07:06:29.558Z,75.42
2018-01-29T07:08:57.899Z,75.49
2018-01-29T07:11:26.229Z,75.40
2018-01-29T07:13:54.579Z,75.35
2018-01-29T07:16:22.879Z,75.18
2018-01-29T07:18:51.955Z,75.28
2018-01-29T07:21:20.319Z,75.24
2018-01-29T07:23:48.654Z,74.99
2018-01-29T07:26:16.949Z,75.04
2018-01-29T07:28:45.261Z,74.83
2018-01-29T07:31:13.559Z,74.81
2018-01-29T07:33:41.852Z,74.92
2018-01-29T07:36:10.159Z,75.14
2018-01-29T07:38:39.989Z,74.88
2018-01-29T07:41:08.309Z,74.75
2018-01-29T07:43:36.603Z,74.68
2018-01-29T07:46:04.905Z,74.69
2018-01-29T07:48:33.947Z,74.46
2018-01-29T07:51:03.005Z,74.49
2018-01-29T07:53:31.357Z,74.45
2018-01-29T07:55:59.675Z,74.12
2018-01-29T07:58:28.431Z,74.30
2018-01-29T08:00:56.759Z,74.25
2018-01-29T08:03:25.084Z,73.93
2018-01-29T08:05:53.393Z,73.87
2018-01-29T08:08:21.678Z,73.75
2018-01-29T08:10:49.997Z,73.56
2018-01-29T08:13:18.302Z,73.30
2018-01-29T08:15:46.604Z,73.16
2018-01-29T08:18:14.905Z,73.28
2018-01-29T08:20:43.222Z,72.81
2018-01-29T08:23:12.288Z,72.28
2018-01-29T08:25:40.725Z,72.23
2018-01-29T08:28:09.838Z,71.96
2018-01-29T08:30:38.149Z,71.95
2018-01-29T08:33:06.442Z,71.82
2018-01-29T08:35:34.773Z,71.42
2018-01-29T08:38:03.850Z,71.30
2018-01-29T08:40:32.160Z,71.39
2018-01-29T08:43:00.477Z,70.76
2018-01-29T08:45:28.776Z,70.39
2018-01-29T08:47:57.079Z,70.58
2018-01-29T08:50:26.790Z,70.36
2018-01-29T08:52:55.124Z,70.14
2018-01-29T08:55:23.449Z,70.11
2018-01-29T08:57:51.801Z,70.04
2018-01-29T09:00:20.127Z,70.11
2018-01-29T09:02:49.234Z,70.09
2018-01-29T09:05:18.289Z,70.00
2018-01-29T09:07:46.598Z,69.95
2018-01-29T09:10:14.941Z,70.07
2018-01-29T09:12:43.261Z,70.01
2018-01-29T09:15:11.571Z,69.89
2018-01-29T09:17:40.642Z,69.46
2018-01-29T09:20:09.713Z,69.32
2018-01-29T09:22:38.018Z,69.00
2018-01-29T09:25:06.323Z,69.07
2018-01-29T09:27:35.439Z,68.95
2018-01-29T09:30:03.743Z,68.58
2018-01-29T09:32:32.052Z,68.64
2018-01-29T09:35:00.428Z,68.68
2018-01-29T09:37:28.721Z,68.48
2018-01-29T09:39:57.015Z,68.17
2018-01-29T09:42:26.090Z,68.61
2018-01-29T09:44:54.404Z,68.06
2018-01-29T09:47:23.459Z,68.21
2018-01-29T09:49:51.775Z,67.40
2018-01-29T09:54:48.421Z,66.88
2018-01-29T09:57:16.826Z,66.77
2018-01-29T09:59:45.892Z,66.61
2018-01-29T10:02:14.286Z,67.04
2018-01-29T10:04:43.497Z,66.17
2018-01-29T10:07:11.784Z,66.36
2018-01-29T10:09:40.286Z,66.30
2018-01-29T10:12:09.389Z,66.08
2018-01-29T10:14:38.442Z,66.23
2018-01-29T10:17:06.737Z,66.39
2018-01-29T10:19:35.061Z,66.43
2018-01-29T10:22:03.401Z,66.88
2018-01-29T10:24:31.724Z,66.86
2018-01-29T10:27:00.050Z,66.75
2018-01-29T10:29:28.358Z,66.66
2018-01-29T10:31:57.432Z,66.63
2018-01-29T10:34:25.735Z,66.56
2018-01-29T10:36:54.031Z,66.42
2018-01-29T10:39:23.178Z,66.65
2018-01-29T10:41:51.472Z,66.43
2018-01-29T10:44:19.768Z,66.19
2018-01-29T10:46:48.094Z,65.85
2018-01-29T10:49:16.394Z,65.87
2018-01-29T10:51:44.699Z,65.54
2018-01-29T10:54:13.043Z,65.85
2018-01-29T10:56:41.348Z,65.80
2018-01-29T10:59:09.710Z,65.64
2018-01-29T11:01:43.616Z,65.62
2018-01-29T11:04:11.953Z,65.54
2018-01-29T11:06:40.276Z,65.29
2018-01-29T11:09:08.592Z,65.34
2018-01-29T11:11:36.892Z,65.23
2018-01-29T11:14:05.332Z,65.06
2018-01-29T11:16:33.654Z,65.04
2018-01-29T11:19:01.997Z,65.03
2018-01-29T11:21:30.402Z,64.55
2018-01-29T11:23:58.710Z,64.43
2018-01-29T11:26:27.009Z,64.35
2018-01-29T11:28:55.774Z,64.14
2018-01-29T11:31:24.107Z,64.17
2018-01-29T11:33:52.429Z,64.75
2018-01-29T11:36:20.708Z,64.07
2018-01-29T11:38:49.014Z,64.58
2018-01-29T11:41:17.346Z,64.59
2018-01-29T11:43:46.442Z,64.63
2018-01-29T11:46:14.744Z,64.83
2018-01-29T11:48:43.051Z,64.80
2018-01-29T11:51:11.432Z,65.16
2018-01-29T11:53:39.734Z,65.37
2018-01-29T11:56:08.045Z,64.75
2018-01-29T11:58:36.343Z,64.30
2018-01-29T12:01:04.646Z,64.46
2018-01-29T12:03:32.930Z,64.32
2018-01-29T12:06:01.262Z,64.40
2018-01-29T12:08:29.582Z,64.44
2018-01-29T12:10:57.892Z,64.43
2018-01-29T12:13:27.759Z,64.28
2018-01-29T12:15:56.080Z,64.62
2018-01-29T12:18:24.392Z,64.60
2018-01-29T12:20:53.454Z,64.35
2018-01-29T12:23:21.751Z,64.46
2018-01-29T12:25:50.056Z,65.01
2018-01-29T12:28:19.136Z,65.23
2018-01-29T12:30:47.454Z,65.57
2018-01-29T12:33:15.801Z,65.92
2018-01-29T12:35:44.127Z,66.11
2018-01-29T12:38:12.507Z,65.68
2018-01-29T12:40:40.806Z,65.84
2018-01-29T12:43:09.111Z,65.64
2018-01-29T12:45:37.426Z,65.56
2018-01-29T12:48:06.572Z,65.65
2018-01-29T12:50:34.873Z,65.58
2018-01-29T12:53:03.186Z,65.82
2018-01-29T12:55:31.506Z,65.97
2018-01-29T12:57:59.842Z,65.72
2018-01-29T13:00:28.147Z,65.79
2018-01-29T13:02:57.284Z,65.54
2018-01-29T13:05:25.574Z,65.54
2018-01-29T13:07:53.896Z,65.73
2018-01-29T13:10:22.952Z,65.44
2018-01-29T13:12:51.238Z,65.63
2018-01-29T13:15:19.556Z,65.92
2018-01-29T13:17:47.916Z,66.16
2018-01-29T13:20:17.070Z,66.77
2018-01-29T13:22:45.387Z,66.65
2018-01-29T13:25:13.728Z,66.95
2018-01-29T13:27:42.026Z,67.44
2018-01-29T13:30:10.327Z,67.77
2018-01-29T13:32:38.632Z,67.91
2018-01-29T13:35:06.946Z,68.00
2018-01-29T13:37:35.301Z,68.08
2018-01-29T13:40:03.625Z,68.17
2018-01-29T13:42:31.941Z,68.53
2018-01-29T13:45:00.264Z,68.64
2018-01-29T13:47:30.276Z,69.12
2018-01-29T13:49:59.329Z,69.02
2018-01-29T13:52:28.414Z,69.37
2018-01-29T13:54:56.712Z,69.96
2018-01-29T13:57:25.068Z,70.28
2018-01-29T13:59:53.388Z,71.19
2018-01-29T14:02:21.736Z,72.76
2018-01-29T14:04:50.084Z,74.00
2018-01-29T14:07:19.146Z,75.50
2018-01-29T14:09:47.456Z,76.55
2018-01-29T14:12:16.696Z,77.75
2018-01-29T14:14:45.009Z,78.87
2018-01-29T14:17:13.306Z,79.75
2018-01-29T14:19:41.608Z,80.70
2018-01-29T14:22:09.930Z,81.33
2018-01-29T14:24:38.248Z,81.83
2018-01-29T14:27:06.560Z,82.20
2018-01-29T14:29:35.627Z,82.74
2018-01-29T14:32:03.963Z,83.23
2018-01-29T14:34:33.035Z,83.87
2018-01-29T14:37:01.340Z,84.15
2018-01-29T14:39:29.636Z,84.62
2018-01-29T14:41:57.941Z,85.05
2018-01-29T14:44:26.255Z,85.29
2018-01-29T14:46:54.676Z,85.79
2018-01-29T14:49:22.993Z,86.05
2018-01-29T14:51:51.310Z,86.38
2018-01-29T14:54:20.382Z,86.54
2018-01-29T14:56:48.695Z,86.69
2018-01-29T14:59:17.761Z,86.79
2018-01-29T15:01:46.124Z,86.90
2018-01-29T15:04:14.416Z,86.99
2018-01-29T15:06:42.713Z,87.07
2018-01-29T15:09:11.015Z,87.23
2018-01-29T15:11:40.153Z,87.31
2018-01-29T15:14:08.447Z,87.65
2018-01-29T15:16:36.737Z,87.70
2018-01-29T15:19:05.042Z,87.81
2018-01-29T15:21:33.373Z,87.91
2018-01-29T15:24:01.690Z,88.24
2018-01-29T15:26:30.001Z,88.31
2018-01-29T15:28:58.427Z,88.28
2018-01-29T15:31:26.740Z,88.42
2018-01-29T15:33:55.032Z,88.52
2018-01-29T15:36:23.327Z,88.57
2018-01-29T15:38:51.634Z,88.79
2018-01-29T15:41:19.948Z,88.81
2018-01-29T15:43:48.251Z,88.97
2018-01-29T15:46:17.315Z,89.03
2018-01-29T15:48:45.604Z,89.15
2018-01-29T15:51:13.907Z,89.36
2018-01-29T15:53:42.217Z,89.46
2018-01-29T15:56:11.283Z,89.62
2018-01-29T15:58:39.651Z,89.66
2018-01-29T16:01:08.708Z,89.62
2018-01-29T16:03:37.806Z,89.69
2018-01-29T16:06:06.150Z,89.52
2018-01-29T16:08:34.457Z,89.45
2018-01-29T16:11:02.756Z,89.46
2018-01-29T16:13:31.829Z,89.38
2018-01-29T16:16:01.851Z,89.42
2018-01-29T16:18:30.145Z,89.34
2018-01-29T16:20:59.214Z,89.33
2018-01-29T16:23:27.514Z,89.34
2018-01-29T16:25:55.893Z,89.31
2018-01-29T16:28:24.945Z,89.45
2018-01-29T16:30:53.234Z,89.36
2018-01-29T16:33:21.543Z,89.20
2018-01-29T16:35:50.629Z,89.21
2018-01-29T16:38:18.935Z,89.22
2018-01-29T16:40:47.231Z,89.23
2018-01-29T16:43:16.299Z,89.28
2018-01-29T16:45:45.425Z,89.19
2018-01-29T16:48:13.810Z,89.14
2018-01-29T16:50:42.883Z,89.14
2018-01-29T16:53:11.187Z,89.16
2018-01-29T16:55:39.503Z,89.32
2018-01-29T16:58:07.805Z,89.24
2018-01-29T17:00:36.107Z,89.09
2018-01-29T17:03:04.421Z,89.13
2018-01-29T17:05:33.545Z,89.18
2018-01-29T17:08:01.836Z,89.19
2018-01-29T17:10:30.152Z,89.10
2018-01-29T17:12:58.455Z,89.01
2018-01-29T17:15:26.756Z,88.91
2018-01-29T17:17:55.825Z,88.68
2018-01-29T17:20:24.124Z,88.73
2018-01-29T17:22:53.255Z,88.70
2018-01-29T17:25:21.537Z,88.75
2018-01-29T17:27:49.894Z,88.81
2018-01-29T17:30:19.022Z,88.62
2018-01-29T17:32:47.296Z,88.38
2018-01-29T17:35:15.589Z,88.28
2018-01-29T17:37:43.959Z,88.10
2018-01-29T17:40:12.282Z,87.86
2018-01-29T17:42:40.582Z,87.75
2018-01-29T17:45:09.641Z,87.54
2018-01-29T17:47:37.944Z,87.30
2018-01-29T17:50:06.240Z,87.26
2018-01-29T17:52:35.356Z,87.17
2018-01-29T17:55:04.445Z,86.96
2018-01-29T17:57:32.769Z,87.00
2018-01-29T18:00:01.083Z,86.91
2018-01-29T18:02:30.192Z,86.95
2018-01-29T18:04:59.324Z,86.67
2018-01-29T18:07:28.385Z,86.43
2018-01-29T18:09:56.730Z,86.34
2018-01-29T18:12:25.022Z,86.19
2018-01-29T18:14:53.326Z,85.91
2018-01-29T18:17:21.672Z,85.59
2018-01-29T18:19:50.786Z,85.50
2018-01-29T18:22:19.087Z,85.47
2018-01-29T18:24:47.379Z,85.35
2018-01-29T18:27:15.717Z,85.17
2018-01-29T18:29:44.016Z,85.16
2018-01-29T18:32:12.300Z,84.97
2018-01-29T18:34:40.615Z,85.00
2018-01-29T18:37:08.944Z,84.85
2018-01-29T18:39:37.284Z,84.39
2018-01-29T18:42:05.559Z,84.31
2018-01-29T18:44:33.857Z,84.18
2018-01-29T18:47:02.908Z,84.02
2018-01-29T18:49:31.241Z,83.87
2018-01-29T18:52:00.333Z,83.89
2018-01-29T18:54:28.650Z,83.89
2018-01-29T18:56:56.962Z,84.01
2018-01-29T18:59:25.285Z,84.22
2018-01-29T19:01:54.363Z,83.88
2018-01-29T19:04:23.423Z,83.89
2018-01-29T19:06:51.735Z,83.60
2018-01-29T19:09:20.069Z,83.41
2018-01-29T19:11:48.421Z,83.43
2018-01-29T19:14:16.714Z,83.56
2018-01-29T19:16:45.783Z,83.47
2018-01-29T19:19:14.179Z,83.54
2018-01-29T19:21:42.496Z,83.23
2018-01-29T19:24:10.922Z,83.03
2018-01-29T19:26:39.632Z,82.93
2018-01-29T19:29:07.914Z,83.14
2018-01-29T19:31:37.991Z,82.94
2018-01-29T19:34:06.360Z,82.55
2018-01-29T19:36:34.664Z,82.11
2018-01-29T19:39:02.958Z,81.72
2018-01-29T19:41:31.367Z,81.29
2018-01-29T19:44:00.377Z,80.69
2018-01-29T19:46:29.422Z,80.44
2018-01-29T19:48:57.708Z,79.99
2018-01-29T19:51:26.067Z,79.96
2018-01-29T19:53:54.362Z,80.02
2018-01-29T19:56:22.663Z,80.35
2018-01-29T19:58:50.960Z,79.83
2018-01-29T20:01:19.270Z,79.70
2018-01-29T20:03:48.363Z,79.58
2018-01-29T20:06:17.437Z,79.63
2018-01-29T20:08:46.019Z,79.60
2018-01-29T20:11:14.345Z,79.61
2018-01-29T20:13:43.469Z,79.58
2018-01-29T20:16:11.781Z,79.68
2018-01-29T20:18:40.328Z,79.70
2018-01-29T20:21:08.572Z,79.47
2018-01-29T20:23:36.868Z,79.06
2018-01-29T20:26:05.958Z,79.20
2018-01-29T20:28:35.033Z,79.26
2018-01-29T20:31:03.338Z,79.17
2018-01-29T20:33:31.660Z,79.08
2018-01-29T20:35:59.934Z,79.10
2018-01-29T20:38:28.221Z,78.94
2018-01-29T20:40:56.506Z,79.31
2018-01-29T20:43:24.808Z,79.66
2018-01-29T20:45:53.108Z,79.20
2018-01-29T20:48:21.426Z,79.23
2018-01-29T20:50:49.715Z,78.99
2018-01-29T20:53:18.004Z,78.82
2018-01-29T20:55:46.296Z,79.17
2018-01-29T20:58:14.595Z,79.12
2018-01-29T21:00:42.927Z,79.24
2018-01-29T21:03:12.027Z,79.44
2018-01-29T21:05:41.103Z,79.13
2018-01-29T21:08:10.193Z,79.12
2018-01-29T21:10:39.274Z,78.90
2018-01-29T21:13:07.567Z,78.84
2018-01-29T21:15:35.862Z,78.76
2018-01-29T21:18:04.174Z,78.78
2018-01-29T21:20:32.480Z,78.94
2018-01-29T21:23:00.770Z,79.09
2018-01-29T21:25:29.131Z,79.25
2018-01-29T21:27:57.428Z,79.18
2018-01-29T21:30:25.724Z,79.47
2018-01-29T21:32:54.069Z,79.34
2018-01-29T21:35:23.116Z,79.39
2018-01-29T21:37:51.404Z,79.22
2018-01-29T21:40:20.471Z,79.93
2018-01-29T21:42:48.825Z,79.81
2018-01-29T21:45:17.122Z,80.10
2018-01-29T21:47:45.496Z,79.66
2018-01-29T21:50:13.796Z,79.41
2018-01-29T21:52:42.164Z,79.38
2018-01-29T21:55:10.478Z,79.40
2018-01-29T21:57:38.796Z,79.39
2018-01-29T22:00:07.084Z,79.47
2018-01-29T22:02:36.166Z,79.44
2018-01-29T22:05:04.552Z,79.28
2018-01-29T22:07:32.909Z,78.91
2018-01-29T22:10:01.211Z,78.56
2018-01-29T22:12:29.490Z,78.44
2018-01-29T22:14:58.536Z,78.61
2018-01-29T22:17:26.840Z,78.48
2018-01-29T22:19:55.134Z,78.22
2018-01-29T22:22:23.486Z,78.34
2018-01-29T22:24:51.782Z,78.44
2018-01-29T22:27:20.058Z,78.38
2018-01-29T22:29:48.346Z,78.57
2018-01-29T22:32:16.642Z,78.58
2018-01-29T22:34:44.959Z,78.33
2018-01-29T22:37:14.024Z,78.37
2018-01-29T22:39:42.306Z,78.49
2018-01-29T22:42:10.598Z,78.78
2018-01-29T22:44:38.892Z,78.96
2018-01-29T22:47:07.208Z,78.99
2018-01-29T22:49:35.510Z,78.96
2018-01-29T22:52:03.864Z,79.09
2018-01-29T22:54:32.180Z,79.05
2018-01-29T22:57:00.574Z,79.08
2018-01-29T22:59:28.880Z,78.85
2018-01-29T23:01:57.205Z,78.84
2018-01-29T23:04:25.582Z,78.88
2018-01-29T23:06:53.888Z,78.91
2018-01-29T23:09:22.190Z,78.94
2018-01-29T23:11:50.490Z,79.14
2018-01-29T23:14:18.770Z,79.08
2018-01-29T23:16:47.073Z,79.11
2018-01-29T23:19:15.370Z,79.13
2018-01-29T23:21:43.673Z,79.11
2018-01-29T23:24:11.962Z,79.06
2018-01-29T23:26:40.267Z,79.17
2018-01-29T23:29:09.440Z,79.19
2018-01-29T23:31:37.732Z,79.07
2018-01-29T23:34:06.052Z,79.00
2018-01-29T23:36:35.112Z,78.93
2018-01-29T23:39:03.428Z,78.74
2018-01-29T23:41:32.499Z,78.80
2018-01-29T23:44:00.831Z,78.83
2018-01-29T23:46:29.172Z,78.83
2018-01-29T23:48:57.491Z,78.72
2018-01-29T23:51:26.687Z,78.76
2018-01-29T23:53:54.984Z,78.76
2018-01-29T23:56:23.304Z,78.71
2018-01-29T23:58:51.614Z,78.67
